San Miguel, Colorado
Current Conditions -  °F | °C
As of 9:52 PM on Thursday 30 Oct 2014 (Local Time) from KALS Reporting Station
Clear Clear  
Wind Chill: 34°   Ceiling: Unl
Heat Index: 38°   Visibility: 10mi
Dew Point: 20°   Wind: 5mph
Humidity: 48%   Direction: 120°ESE
Pressure: 30.37"   Gusts: NA
Location:  37.1816°N, 106.262°W
Report Text: KALS 310352Z AUTO 12004KT 10SM CLR 03/M07 A3037 RMK AO2 SLP260 T00331067
Loading
Personal Weather Stations






























Interactive Weather Map
Tropical Storm Tracking
New forecast layout! Learn more

10-Day Weather Forecast

Advertisements
Track Severe Weather on mobile